createdAt,value
2024-04-18T00:02:13.465Z,12.10
2024-04-18T00:04:41.428Z,12.10
2024-04-18T00:07:09.266Z,12.10
2024-04-18T00:09:37.373Z,12.00
2024-04-18T00:12:05.583Z,12.10
2024-04-18T00:14:48.373Z,12.00
2024-04-18T00:17:19.011Z,12.00
2024-04-18T00:19:46.995Z,11.90
2024-04-18T00:22:32.438Z,12.10
2024-04-18T00:25:07.736Z,12.20
2024-04-18T00:27:54.756Z,12.10
2024-04-18T00:30:41.571Z,11.70
2024-04-18T00:33:10.139Z,11.60
2024-04-18T00:35:39.261Z,11.50
2024-04-18T00:38:16.340Z,11.60
2024-04-18T00:40:44.728Z,11.70
2024-04-18T00:43:21.823Z,11.70
2024-04-18T00:45:53.864Z,11.70
2024-04-18T00:48:28.110Z,11.70
2024-04-18T00:50:58.311Z,11.70
2024-04-18T00:53:27.400Z,11.80
2024-04-18T00:55:56.185Z,11.90
2024-04-18T00:58:42.848Z,11.90
2024-04-18T01:01:23.876Z,11.90
2024-04-18T01:03:58.305Z,11.80
2024-04-18T01:06:42.534Z,11.90
2024-04-18T01:09:17.644Z,12.10
2024-04-18T01:12:04.399Z,12.00
2024-04-18T01:14:32.348Z,12.10
2024-04-18T01:17:04.560Z,12.10
2024-04-18T01:19:32.814Z,12.10
2024-04-18T01:22:04.731Z,12.10
2024-04-18T01:24:34.340Z,12.10
2024-04-18T01:27:02.524Z,12.10
2024-04-18T01:29:43.285Z,12.10
2024-04-18T01:32:32.520Z,12.10
2024-04-18T01:35:00.421Z,12.10
2024-04-18T01:37:47.155Z,12.10
2024-04-18T01:40:15.116Z,12.10
2024-04-18T01:42:43.140Z,12.10
2024-04-18T01:45:37.166Z,12.00
2024-04-18T01:48:14.060Z,12.10
2024-04-18T01:51:04.496Z,12.20
2024-04-18T01:53:35.366Z,12.10
2024-04-18T01:56:19.008Z,11.90
2024-04-18T01:58:47.314Z,11.90
2024-04-18T02:01:15.472Z,12.10
2024-04-18T02:03:43.651Z,12.10
2024-04-18T02:06:14.308Z,12.00
2024-04-18T02:08:48.123Z,12.10
2024-04-18T02:11:42.056Z,11.90
2024-04-18T02:14:14.219Z,11.80
2024-04-18T02:16:42.083Z,11.90
2024-04-18T02:19:25.755Z,11.90
2024-04-18T02:22:00.378Z,11.90
2024-04-18T02:24:39.159Z,11.90
2024-04-18T02:27:07.010Z,11.90
2024-04-18T02:29:34.779Z,11.90
2024-04-18T02:32:02.645Z,11.90
2024-04-18T02:34:33.077Z,11.90
2024-04-18T02:37:20.806Z,11.80
2024-04-18T02:39:48.910Z,11.80
2024-04-18T02:42:28.000Z,11.60
2024-04-18T02:45:01.251Z,11.60
2024-04-18T02:47:50.406Z,11.70
2024-04-18T02:50:38.401Z,11.70
2024-04-18T02:53:06.262Z,11.50
2024-04-18T02:55:34.143Z,11.40
2024-04-18T02:58:02.085Z,11.40
2024-04-18T03:00:30.116Z,11.30
2024-04-18T03:03:10.169Z,11.20
2024-04-18T03:06:05.101Z,11.30
2024-04-18T03:08:33.079Z,11.20
2024-04-18T03:11:19.353Z,11.30
2024-04-18T03:14:05.854Z,11.40
2024-04-18T03:16:34.037Z,11.40
2024-04-18T03:19:34.275Z,11.40
2024-04-18T03:22:02.112Z,11.40
2024-04-18T03:24:49.974Z,11.20
2024-04-18T03:27:31.583Z,11.10
2024-04-18T03:29:59.483Z,10.90
2024-04-18T03:32:36.963Z,10.90
2024-04-18T03:35:05.946Z,10.70
2024-04-18T03:37:38.882Z,10.50
2024-04-18T03:40:25.864Z,10.60
2024-04-18T03:43:02.509Z,10.60
2024-04-18T03:45:30.353Z,10.60
2024-04-18T03:48:18.230Z,10.60
2024-04-18T03:50:46.039Z,10.80
2024-04-18T03:53:20.898Z,10.80
2024-04-18T03:55:48.882Z,10.80
2024-04-18T03:58:16.698Z,11.00
2024-04-18T04:00:50.696Z,11.00
2024-04-18T04:03:18.799Z,11.00
2024-04-18T04:05:46.708Z,11.00
2024-04-18T04:08:14.775Z,10.90
2024-04-18T04:10:45.723Z,11.00
2024-04-18T04:13:13.621Z,10.90
2024-04-18T04:15:51.977Z,10.80
2024-04-18T04:18:38.339Z,10.80
2024-04-18T04:21:38.418Z,10.80
2024-04-18T04:24:06.700Z,10.70
2024-04-18T04:26:50.623Z,10.70
2024-04-18T04:29:18.501Z,10.60
2024-04-18T04:31:46.301Z,10.80
2024-04-18T04:34:14.641Z,10.70
2024-04-18T04:36:42.528Z,10.70
2024-04-18T04:39:10.326Z,10.70
2024-04-18T04:41:41.322Z,10.70
2024-04-18T04:44:09.192Z,10.70
2024-04-18T04:46:50.034Z,10.70
2024-04-18T04:49:18.716Z,10.70
2024-04-18T04:52:05.630Z,10.70
2024-04-18T04:54:44.069Z,10.60
2024-04-18T04:57:12.775Z,10.80
2024-04-18T04:59:41.069Z,10.90
2024-04-18T05:02:09.008Z,11.00
2024-04-18T05:04:50.357Z,11.20
2024-04-18T05:07:33.573Z,11.20
2024-04-18T05:10:23.881Z,11.20
2024-04-18T05:12:52.503Z,11.30
2024-04-18T05:15:35.986Z,11.30
2024-04-18T05:18:05.734Z,11.30
2024-04-18T05:20:33.966Z,11.40
2024-04-18T05:23:01.805Z,11.50
2024-04-18T05:25:29.634Z,11.60
2024-04-18T05:28:22.294Z,11.60
2024-04-18T05:31:02.811Z,11.80
2024-04-18T05:33:32.370Z,11.60
2024-04-18T05:36:00.509Z,11.70
2024-04-18T05:38:28.602Z,11.70
2024-04-18T05:40:56.918Z,11.70
2024-04-18T05:43:44.834Z,11.80
2024-04-18T05:46:12.894Z,11.90
2024-04-18T05:48:41.164Z,12.00
2024-04-18T05:51:09.101Z,12.20
2024-04-18T05:53:53.761Z,12.20
2024-04-18T05:56:29.619Z,12.30
2024-04-18T05:58:57.547Z,12.40
2024-04-18T06:01:25.398Z,12.50
2024-04-18T06:03:53.543Z,12.70
2024-04-18T06:06:21.471Z,12.80
2024-04-18T06:08:51.431Z,12.80
2024-04-18T06:11:19.239Z,12.80
2024-04-18T06:13:47.101Z,12.80
2024-04-18T06:16:14.986Z,12.80
2024-04-18T06:18:51.965Z,12.80
2024-04-18T06:21:19.863Z,12.70
2024-04-18T06:23:47.697Z,12.70
2024-04-18T06:26:18.201Z,12.60
2024-04-18T06:28:46.950Z,12.60
2024-04-18T06:31:17.529Z,12.60
2024-04-18T06:33:46.500Z,12.60
2024-04-18T06:36:14.580Z,12.60
2024-04-18T06:38:42.407Z,12.60
2024-04-18T06:41:10.955Z,12.60
2024-04-18T06:43:44.185Z,12.60
2024-04-18T06:46:12.151Z,12.60
2024-04-18T06:48:40.005Z,12.60
2024-04-18T06:51:07.856Z,12.60
2024-04-18T06:53:35.597Z,12.70
2024-04-18T06:56:03.519Z,12.80
2024-04-18T06:58:31.306Z,12.80
2024-04-18T07:00:59.256Z,12.80
2024-04-18T07:03:27.204Z,12.90
2024-04-18T07:05:55.528Z,12.80
2024-04-18T07:08:25.953Z,12.90
2024-04-18T07:10:54.819Z,12.90
2024-04-18T07:13:33.682Z,12.90
2024-04-18T07:16:22.801Z,12.90
2024-04-18T07:18:56.410Z,12.80
2024-04-18T07:21:24.452Z,12.90
2024-04-18T07:24:12.264Z,12.90
2024-04-18T07:26:43.813Z,12.90
2024-04-18T07:29:11.809Z,12.80
2024-04-18T07:31:39.894Z,12.80
2024-04-18T07:34:14.835Z,12.70
2024-04-18T07:36:42.823Z,12.70
2024-04-18T07:39:10.758Z,12.70
2024-04-18T07:41:38.466Z,12.40
2024-04-18T07:44:10.395Z,12.20
2024-04-18T07:46:38.401Z,12.20
2024-04-18T07:49:06.293Z,12.00
2024-04-18T07:51:34.326Z,12.00
2024-04-18T07:54:02.080Z,12.10
2024-04-18T07:56:30.355Z,12.10
2024-04-18T07:58:59.974Z,11.90
2024-04-18T08:01:29.537Z,11.70
2024-04-18T08:04:16.999Z,11.60
2024-04-18T08:06:47.684Z,11.20
2024-04-18T08:09:19.770Z,10.70
2024-04-18T08:14:24.958Z,10.20
2024-04-18T08:16:55.650Z,10.10
2024-04-18T08:19:23.522Z,10.00
2024-04-18T08:21:51.400Z,10.00
2024-04-18T08:24:29.236Z,9.90
2024-04-18T08:27:09.793Z,9.60
2024-04-18T08:29:37.920Z,9.70
2024-04-18T08:32:06.079Z,9.60
2024-04-18T08:35:05.012Z,9.50
2024-04-18T08:37:32.854Z,9.50
2024-04-18T08:40:00.717Z,9.60
2024-04-18T08:42:30.984Z,9.60
2024-04-18T08:44:59.125Z,9.70
2024-04-18T08:47:28.535Z,9.60
2024-04-18T08:49:56.665Z,9.50
2024-04-18T08:52:24.582Z,9.50
2024-04-18T08:54:52.373Z,9.10
2024-04-18T08:57:21.187Z,9.10
2024-04-18T08:59:56.017Z,9.10
2024-04-18T09:02:24.419Z,9.00
2024-04-18T09:04:52.198Z,9.00
2024-04-18T09:07:19.972Z,9.10
2024-04-18T09:09:48.444Z,9.20
2024-04-18T09:12:16.229Z,9.20
2024-04-18T09:14:44.236Z,9.20
2024-04-18T09:17:15.605Z,9.20
2024-04-18T09:19:43.407Z,9.30
2024-04-18T09:22:11.265Z,9.10
2024-04-18T09:24:44.914Z,9.30
2024-04-18T09:27:16.750Z,9.30
2024-04-18T09:29:46.047Z,9.30
2024-04-18T09:32:16.304Z,9.40
2024-04-18T09:34:52.104Z,9.40
2024-04-18T09:37:22.903Z,9.40
2024-04-18T09:39:53.514Z,9.30
2024-04-18T09:42:38.295Z,9.40
2024-04-18T09:45:12.247Z,9.40
2024-04-18T09:47:40.692Z,9.50
2024-04-18T09:50:08.682Z,9.50
2024-04-18T09:52:37.700Z,9.50
2024-04-18T09:55:08.803Z,9.50
2024-04-18T09:57:37.766Z,9.50
2024-04-18T10:00:08.296Z,9.40
2024-04-18T10:02:40.515Z,9.50
2024-04-18T10:05:08.900Z,9.50
2024-04-18T10:07:37.579Z,9.50
2024-04-18T10:10:07.622Z,9.60
2024-04-18T10:12:35.973Z,9.50
2024-04-18T10:15:03.996Z,9.50
2024-04-18T10:17:32.999Z,9.50
2024-04-18T10:20:07.202Z,9.80
2024-04-18T10:22:46.729Z,10.10
2024-04-18T10:25:21.202Z,10.10
2024-04-18T10:27:49.130Z,10.10
2024-04-18T10:30:20.188Z,10.10
2024-04-18T10:32:49.860Z,10.30
2024-04-18T10:35:18.728Z,10.30
2024-04-18T10:37:55.968Z,10.40
2024-04-18T10:40:23.868Z,10.60
2024-04-18T10:42:51.708Z,10.60
2024-04-18T10:45:19.696Z,10.80
2024-04-18T10:47:54.014Z,10.80
2024-04-18T10:50:22.189Z,10.90
2024-04-18T10:52:49.904Z,10.80
2024-04-18T10:55:17.763Z,10.90
2024-04-18T10:57:45.664Z,10.80
2024-04-18T11:00:17.716Z,10.60
2024-04-18T11:02:45.689Z,10.50
2024-04-18T11:05:13.486Z,10.40
2024-04-18T11:07:50.951Z,10.30
2024-04-18T11:10:18.998Z,10.30
2024-04-18T11:12:46.881Z,10.30
2024-04-18T11:15:17.985Z,10.30
2024-04-18T11:17:46.453Z,10.30
2024-04-18T11:20:14.395Z,10.40
2024-04-18T11:22:45.786Z,10.40
2024-04-18T11:25:16.394Z,10.50
2024-04-18T11:28:08.993Z,10.50
2024-04-18T11:30:46.233Z,10.40
2024-04-18T11:33:20.121Z,10.40
2024-04-18T11:35:48.268Z,10.40
2024-04-18T11:38:19.442Z,10.40
2024-04-18T11:40:47.883Z,10.30
2024-04-18T11:43:15.670Z,10.40
2024-04-18T11:45:43.567Z,10.30
2024-04-18T11:48:11.477Z,10.40
2024-04-18T11:50:39.353Z,10.50
2024-04-18T11:53:07.208Z,10.40
2024-04-18T11:55:35.118Z,10.40
2024-04-18T11:58:21.520Z,10.20
2024-04-18T12:00:49.283Z,10.10
2024-04-18T12:03:17.073Z,10.00
2024-04-18T12:05:54.521Z,10.00
2024-04-18T12:08:22.335Z,10.10
2024-04-18T12:10:50.087Z,10.10
2024-04-18T12:13:34.859Z,10.10
2024-04-18T12:16:08.005Z,10.10
2024-04-18T12:18:36.392Z,10.10
2024-04-18T12:21:24.236Z,10.20
2024-04-18T12:23:52.256Z,10.30
2024-04-18T12:26:36.604Z,10.30
2024-04-18T12:29:04.423Z,10.50
2024-04-18T12:31:32.127Z,10.60
2024-04-18T12:34:00.330Z,10.40
2024-04-18T12:36:29.563Z,10.30
2024-04-18T12:39:17.375Z,10.20
2024-04-18T12:41:45.426Z,10.30
2024-04-18T12:44:16.134Z,10.40
2024-04-18T12:46:47.251Z,10.60
2024-04-18T12:49:15.235Z,10.70
2024-04-18T12:51:43.495Z,10.80
2024-04-18T12:54:12.137Z,10.80
2024-04-18T12:56:50.337Z,11.00
2024-04-18T12:59:25.086Z,10.90
2024-04-18T13:01:52.959Z,10.90
2024-04-18T13:04:21.637Z,11.00
2024-04-18T13:06:49.744Z,11.00
2024-04-18T13:09:30.754Z,11.00
2024-04-18T13:12:05.036Z,11.00
2024-04-18T13:14:51.919Z,11.00
2024-04-18T13:17:21.021Z,11.00
2024-04-18T13:19:49.173Z,11.00
2024-04-18T13:22:17.554Z,10.90
2024-04-18T13:24:48.766Z,10.90
2024-04-18T13:27:27.397Z,10.90
2024-04-18T13:29:56.395Z,10.90
2024-04-18T13:32:40.512Z,11.00
2024-04-18T13:35:09.411Z,11.00
2024-04-18T13:37:37.450Z,11.10
2024-04-18T13:40:19.522Z,11.20
2024-04-18T13:42:59.117Z,11.30
2024-04-18T13:45:31.725Z,11.20
2024-04-18T13:48:01.272Z,11.30
2024-04-18T13:50:45.537Z,11.40
2024-04-18T13:53:16.523Z,11.50
2024-04-18T13:55:50.851Z,11.50
2024-04-18T13:58:23.457Z,11.30
2024-04-18T14:01:02.243Z,11.30
2024-04-18T14:03:32.696Z,11.20
2024-04-18T14:06:08.774Z,11.30
2024-04-18T14:08:38.065Z,11.30
2024-04-18T14:11:27.608Z,11.30
2024-04-18T14:14:15.742Z,11.30
2024-04-18T14:17:20.836Z,11.30
2024-04-18T14:20:06.894Z,11.30
2024-04-18T14:22:49.912Z,11.30
2024-04-18T14:25:17.701Z,11.30
2024-04-18T14:28:09.798Z,11.40
2024-04-18T14:30:40.941Z,11.40
2024-04-18T14:33:11.809Z,11.40
2024-04-18T14:35:40.083Z,11.50
2024-04-18T14:38:07.822Z,11.60
2024-04-18T14:40:35.896Z,11.70
2024-04-18T14:43:03.770Z,11.80
2024-04-18T14:45:32.088Z,11.80
2024-04-18T14:47:59.875Z,11.80
2024-04-18T14:50:55.049Z,11.90
2024-04-18T14:53:41.481Z,11.80
2024-04-18T14:56:09.315Z,11.90
2024-04-18T14:58:39.062Z,11.90
2024-04-18T15:01:23.031Z,12.00
2024-04-18T15:03:51.030Z,12.10
2024-04-18T15:06:20.057Z,12.20
2024-04-18T15:09:08.627Z,12.30
2024-04-18T15:12:00.226Z,12.50
2024-04-18T15:14:40.556Z,12.50
2024-04-18T15:17:10.025Z,12.60
2024-04-18T15:19:38.373Z,12.60
2024-04-18T15:22:24.539Z,12.70
2024-04-18T15:25:12.506Z,12.70
2024-04-18T15:27:40.985Z,12.80
2024-04-18T15:30:09.085Z,12.90
2024-04-18T15:32:36.862Z,12.90
2024-04-18T15:35:22.650Z,13.00
2024-04-18T15:38:08.962Z,13.10
2024-04-18T15:40:36.929Z,13.10
2024-04-18T15:43:05.765Z,13.20
2024-04-18T15:45:39.927Z,13.40
2024-04-18T15:48:23.259Z,13.30
2024-04-18T15:50:54.334Z,13.30
2024-04-18T15:53:31.400Z,13.40
2024-04-18T15:56:08.739Z,13.40
2024-04-18T15:58:55.122Z,13.50
2024-04-18T16:01:23.714Z,13.50
2024-04-18T16:04:10.446Z,13.60
2024-04-18T16:06:57.163Z,13.50
2024-04-18T16:09:43.477Z,13.50
2024-04-18T16:12:23.432Z,13.40
2024-04-18T16:15:02.340Z,13.30
2024-04-18T16:17:30.678Z,13.40
2024-04-18T16:20:12.768Z,13.40
2024-04-18T16:22:40.632Z,13.30
2024-04-18T16:25:28.138Z,13.20
2024-04-18T16:27:56.244Z,13.10
2024-04-18T16:30:26.644Z,13.00
2024-04-18T16:32:54.740Z,13.00
2024-04-18T16:35:22.545Z,12.90
2024-04-18T16:38:09.468Z,12.80
2024-04-18T16:40:53.004Z,12.70
2024-04-18T16:43:36.343Z,12.60
2024-04-18T16:46:06.333Z,12.60
2024-04-18T16:48:34.331Z,12.60
2024-04-18T16:51:02.426Z,12.60
2024-04-18T16:53:56.996Z,12.50
2024-04-18T16:56:35.223Z,12.50
2024-04-18T16:59:04.282Z,12.50
2024-04-18T17:01:32.097Z,12.50
2024-04-18T17:03:59.977Z,12.40
2024-04-18T17:06:45.309Z,12.50
2024-04-18T17:09:18.248Z,12.50
2024-04-18T17:11:46.577Z,12.50
2024-04-18T17:14:33.130Z,12.60
2024-04-18T17:17:01.012Z,12.50
2024-04-18T17:19:49.034Z,12.50
2024-04-18T17:22:16.861Z,12.40
2024-04-18T17:24:44.608Z,12.40
2024-04-18T17:27:12.510Z,12.30
2024-04-18T17:29:40.467Z,12.30
2024-04-18T17:32:08.363Z,12.20
2024-04-18T17:34:36.517Z,12.20
2024-04-18T17:37:24.232Z,12.10
2024-04-18T17:39:53.507Z,12.10
2024-04-18T17:42:22.491Z,12.10
2024-04-18T17:44:56.411Z,12.30
2024-04-18T17:47:28.172Z,12.20
2024-04-18T17:49:56.469Z,12.10
2024-04-18T17:52:26.854Z,12.10
2024-04-18T17:54:58.147Z,12.00
2024-04-18T17:57:28.027Z,12.00
2024-04-18T18:00:14.786Z,11.80
2024-04-18T18:02:42.792Z,11.70
2024-04-18T18:05:10.654Z,11.70
2024-04-18T18:07:38.504Z,11.60
2024-04-18T18:10:07.276Z,11.60
2024-04-18T18:12:35.640Z,11.60
2024-04-18T18:15:05.239Z,11.50
2024-04-18T18:17:36.109Z,11.40
2024-04-18T18:20:04.222Z,11.50
2024-04-18T18:22:48.097Z,11.40
2024-04-18T18:25:15.942Z,11.30
2024-04-18T18:27:43.898Z,11.40
2024-04-18T18:30:29.165Z,11.30
2024-04-18T18:33:17.304Z,11.30
2024-04-18T18:35:45.139Z,11.20
2024-04-18T18:38:12.980Z,11.10
2024-04-18T18:40:41.886Z,11.00
2024-04-18T18:43:23.085Z,11.00
2024-04-18T18:45:50.907Z,10.90
2024-04-18T18:48:18.925Z,10.80
2024-04-18T18:51:06.320Z,10.80
2024-04-18T18:53:34.464Z,10.80
2024-04-18T18:56:02.179Z,10.90
2024-04-18T18:58:50.961Z,10.90
2024-04-18T19:01:18.887Z,10.90
2024-04-18T19:03:49.343Z,10.70
2024-04-18T19:06:24.797Z,10.70
2024-04-18T19:08:52.858Z,10.70
2024-04-18T19:11:37.319Z,10.60
2024-04-18T19:14:06.397Z,10.70
2024-04-18T19:16:34.537Z,10.60
2024-04-18T19:19:02.460Z,10.70
2024-04-18T19:21:30.481Z,10.60
2024-04-18T19:23:58.781Z,10.30
2024-04-18T19:26:27.809Z,10.10
2024-04-18T19:28:55.803Z,10.10
2024-04-18T19:31:23.686Z,10.10
2024-04-18T19:33:51.790Z,10.10
2024-04-18T19:36:20.909Z,10.10
2024-04-18T19:38:48.781Z,10.10
2024-04-18T19:41:39.634Z,10.20
2024-04-18T19:44:07.684Z,10.20
2024-04-18T19:46:35.400Z,10.10
2024-04-18T19:49:10.793Z,10.00
2024-04-18T19:52:01.768Z,10.10
2024-04-18T19:54:32.093Z,9.90
2024-04-18T19:56:59.941Z,9.80
2024-04-18T19:59:27.746Z,9.80
2024-04-18T20:01:55.436Z,10.00
2024-04-18T20:04:23.260Z,9.90
2024-04-18T20:06:51.052Z,9.90
2024-04-18T20:09:18.915Z,10.00
2024-04-18T20:11:46.718Z,10.00
2024-04-18T20:14:20.606Z,10.00
2024-04-18T20:16:48.424Z,9.90
2024-04-18T20:19:16.582Z,9.80
2024-04-18T20:21:45.204Z,9.90
2024-04-18T20:24:14.722Z,10.20
2024-04-18T20:27:02.374Z,10.10
2024-04-18T20:29:46.156Z,10.00
2024-04-18T20:32:26.539Z,10.00
2024-04-18T20:34:55.365Z,9.90
2024-04-18T20:37:24.456Z,9.90
2024-04-18T20:39:56.266Z,9.80
2024-04-18T20:42:27.139Z,9.80
2024-04-18T20:45:02.638Z,9.80
2024-04-18T20:47:30.868Z,9.80
2024-04-18T20:49:58.815Z,9.70
2024-04-18T20:52:26.723Z,9.70
2024-04-18T20:54:54.690Z,9.90
2024-04-18T20:57:26.797Z,9.90
2024-04-18T20:59:55.350Z,10.00
2024-04-18T21:02:23.561Z,9.80
2024-04-18T21:04:51.366Z,9.80
2024-04-18T21:07:19.267Z,9.90
2024-04-18T21:09:47.251Z,9.80
2024-04-18T21:12:15.154Z,9.80
2024-04-18T21:14:43.048Z,9.80
2024-04-18T21:17:10.867Z,9.90
2024-04-18T21:19:38.653Z,9.80
2024-04-18T21:22:06.891Z,9.80
2024-04-18T21:24:34.915Z,9.80
2024-04-18T21:27:02.697Z,9.80
2024-04-18T21:29:30.544Z,9.80
2024-04-18T21:31:58.357Z,9.80
2024-04-18T21:34:26.360Z,9.70
2024-04-18T21:36:54.210Z,9.70
2024-04-18T21:39:21.985Z,9.70
2024-04-18T21:41:49.958Z,9.60
2024-04-18T21:44:17.747Z,9.60
2024-04-18T21:46:45.609Z,9.60
2024-04-18T21:49:13.391Z,9.70
2024-04-18T21:51:41.250Z,9.70
2024-04-18T21:54:09.078Z,9.70
2024-04-18T21:56:36.849Z,9.70
2024-04-18T21:59:04.594Z,9.70
2024-04-18T22:01:44.495Z,9.70
2024-04-18T22:04:12.580Z,9.60
2024-04-18T22:06:40.675Z,9.60
2024-04-18T22:09:08.695Z,9.50
2024-04-18T22:11:36.711Z,9.50
2024-04-18T22:14:04.562Z,9.50
2024-04-18T22:16:32.341Z,9.50
2024-04-18T22:19:00.317Z,9.40
2024-04-18T22:21:38.260Z,9.30
2024-04-18T22:24:06.751Z,9.30
2024-04-18T22:26:35.121Z,9.30
2024-04-18T22:29:02.874Z,9.20
2024-04-18T22:31:30.680Z,9.30
2024-04-18T22:33:58.535Z,9.20
2024-04-18T22:36:27.543Z,9.20
2024-04-18T22:38:57.566Z,9.20
2024-04-18T22:41:27.511Z,9.30
2024-04-18T22:43:55.742Z,9.20
2024-04-18T22:46:23.791Z,9.20
2024-04-18T22:48:51.733Z,9.20
2024-04-18T22:51:19.932Z,9.20
2024-04-18T22:53:47.758Z,9.00
2024-04-18T22:56:15.596Z,9.10
2024-04-18T22:58:43.502Z,9.10
2024-04-18T23:01:11.522Z,9.10
2024-04-18T23:03:39.477Z,9.00
2024-04-18T23:06:13.999Z,9.00
2024-04-18T23:08:43.314Z,8.90
2024-04-18T23:11:11.363Z,8.80
2024-04-18T23:13:39.488Z,8.70
2024-04-18T23:16:08.174Z,8.70
2024-04-18T23:18:36.478Z,8.70
2024-04-18T23:21:04.763Z,8.70
2024-04-18T23:23:35.926Z,8.70
2024-04-18T23:26:04.333Z,8.70
2024-04-18T23:28:32.146Z,8.70
2024-04-18T23:30:59.997Z,8.70
2024-04-18T23:33:28.629Z,8.70
2024-04-18T23:35:56.639Z,8.70
2024-04-18T23:38:25.071Z,8.70
2024-04-18T23:40:53.013Z,8.70
2024-04-18T23:43:21.513Z,8.70
2024-04-18T23:45:49.567Z,8.60
2024-04-18T23:48:18.635Z,8.60
2024-04-18T23:50:46.563Z,8.70
2024-04-18T23:53:14.418Z,8.70
2024-04-18T23:55:42.248Z,8.70
2024-04-18T23:58:10.089Z,8.60
